Vineland Escarpment

*Note: All times are displayed in the local standard time of the station location.
**Rain - Equipment is designed to accurately record liquid precipitation; under conditions when precipitation is not in liquid form, the data displayed may not properly reflect rainfall values.

Date Max Temp
(°C)
Min Temp
(°C)
Avg Temp
(°C)
Rain (mm) Avg RH (%)
Sun, Dec 10, 2017 -1.7 -3.1 -2.4 0.0 74.2
Sat, Dec 09, 2017 1.3 -3.0 -0.7 0.0 64.7
Fri, Dec 08, 2017 -0.2 -4.4 -2.0 0.0 64.0
Thu, Dec 07, 2017 0.9 -3.6 -1.1 0.0 64.4
Wed, Dec 06, 2017 3.5 -1.2 1.2 0.0 55.0
Tue, Dec 05, 2017 11.3 0.5 7.3 8.0 71.9
Mon, Dec 04, 2017 11.1 -1.0 5.9 0.2 73.5
DateTime Avg Temp (°C) Rain (mm) RH (%)
Mon, Dec 11, 2017 02:00 -2.9 0.0 85.5
Mon, Dec 11, 2017 01:00 -2.1 0.0 78.5
Mon, Dec 11, 2017 00:00 -2.3 0.0 75.0
Sun, Dec 10, 2017 23:00 -2.8 0.0 76.8
Sun, Dec 10, 2017 22:00 -2.7 0.0 75.0
Sun, Dec 10, 2017 21:00 -2.5 0.0 73.8
Sun, Dec 10, 2017 20:00 -2.5 0.0 71.3
Sun, Dec 10, 2017 19:00 -2.4 0.0 70.0
Sun, Dec 10, 2017 18:00 -2.0 0.0 66.3
Sun, Dec 10, 2017 17:00 -1.8 0.0 65.3
Sun, Dec 10, 2017 16:00 -1.8 0.0 68.5
Sun, Dec 10, 2017 15:00 -1.7 0.0 70.0
Sun, Dec 10, 2017 14:00 -1.7 0.0 69.5
Sun, Dec 10, 2017 13:00 -1.9 0.0 70.8
Sun, Dec 10, 2017 12:00 -2.0 0.0 68.0
Sun, Dec 10, 2017 11:00 -2.3 0.0 65.8
Sun, Dec 10, 2017 10:00 -2.7 0.0 67.3
Sun, Dec 10, 2017 09:00 -3.0 0.0 69.0
Sun, Dec 10, 2017 08:00 -3.1 0.0 69.3
Sun, Dec 10, 2017 07:00 -2.9 0.0 77.5
Sun, Dec 10, 2017 06:00 -2.9 0.0 79.8
Sun, Dec 10, 2017 05:00 -2.4 0.0 82.0
Sun, Dec 10, 2017 04:00 -2.6 0.0 86.8
Sun, Dec 10, 2017 03:00 -2.5 0.0 86.5
Sun, Dec 10, 2017 02:00 -2.7 0.0 88.3
Sun, Dec 10, 2017 01:00 -2.6 0.0 88.5
Sun, Dec 10, 2017 00:00 -2.6 0.0 88.8
Sat, Dec 09, 2017 23:00 -2.9 0.0 88.3
Sat, Dec 09, 2017 22:00 -2.6 0.0 87.3
Sat, Dec 09, 2017 21:00 -2.0 0.0 83.3
Sat, Dec 09, 2017 20:00 -1.2 0.0 73.8
Sat, Dec 09, 2017 19:00 -0.5 0.0 62.5
Sat, Dec 09, 2017 18:00 -0.4 0.0 61.3
Sat, Dec 09, 2017 17:00 0.1 0.0 58.8
Sat, Dec 09, 2017 16:00 0.6 0.0 54.8
Sat, Dec 09, 2017 15:00 0.6 0.0 52.8
Sat, Dec 09, 2017 14:00 0.9 0.0 51.3
Sat, Dec 09, 2017 13:00 0.3 0.0 53.5
Sat, Dec 09, 2017 12:00 0.8 0.0 51.3
Sat, Dec 09, 2017 11:00 0.9 0.0 53.8
Sat, Dec 09, 2017 10:00 0.3 0.0 62.3
Sat, Dec 09, 2017 09:00 -1.1 0.0 71.0
Sat, Dec 09, 2017 08:00 -0.8 0.0 72.0
Sat, Dec 09, 2017 07:00 -0.5 0.0 73.5
Sat, Dec 09, 2017 06:00 -0.6 0.0 68.3
Sat, Dec 09, 2017 05:00 -1.0 0.0 58.3
Sat, Dec 09, 2017 04:00 -1.1 0.0 57.5
Sat, Dec 09, 2017 03:00 -1.2 0.0 57.3


asterix Register now to access more data! asterix